Portada
METAR-TAF:

METAR-TAF

Aeroports :

Boca Raton, Florida, Estats Units d'Amèrica

latitud: 26-22-43N, longitud: 080-06-28W, altitud: 4 m

Observació

L'informe es va fer fa 1 hora i 26 minuts, a les 16:47 UTC
Vent 12 kt del Nord/Nord-Oest
Temperatura 18°C
Humitat 49%
Pressió 1021 hPa
Visibilitat: 16.1 km
Cel clar

METAR: KBCT 271647Z 34012KT 10SM CLR 18/07 A3015

Hora: 13:13 (18:13 UTC)


TAF: manca

Observacions i pronòstics meteorològics de més de 4000 aeroports (METAR i TAF).

Les estacions disponibles són els punts grocs i vermells al mapa.

Posi el ratolí al punt desitjat per veure el nom de l'estació.

Feu clic per veure les observacions i els pronòstics meteorològics.

Per canviar el mapa: feu clic els botons verds amb una creu de color negre per apropar; al botó verd amb un guió per allunyar la imatge; o en les fletxes verdes per a mapes adjacents.


METAR-TAF: